createdAt,value
2022-10-13T00:00:47.428Z,61.96
2022-10-13T00:03:14.943Z,61.73
2022-10-13T00:05:43.731Z,61.84
2022-10-13T00:08:11.661Z,61.80
2022-10-13T00:10:40.349Z,62.10
2022-10-13T00:13:08.903Z,62.05
2022-10-13T00:15:40.306Z,61.91
2022-10-13T00:18:07.632Z,62.10
2022-10-13T00:20:35.565Z,61.98
2022-10-13T00:23:02.417Z,62.07
2022-10-13T00:25:29.337Z,62.10
2022-10-13T00:27:56.191Z,62.02
2022-10-13T00:30:23.067Z,62.22
2022-10-13T00:32:49.916Z,62.12
2022-10-13T00:35:16.795Z,62.21
2022-10-13T00:37:43.621Z,62.07
2022-10-13T00:40:11.108Z,62.20
2022-10-13T00:42:41.478Z,62.34
2022-10-13T00:45:29.725Z,62.19
2022-10-13T00:47:59.572Z,62.25
2022-10-13T00:50:33.890Z,62.23
2022-10-13T00:53:02.083Z,62.42
2022-10-13T00:55:32.310Z,62.30
2022-10-13T00:58:05.216Z,62.35
2022-10-13T01:00:33.554Z,62.25
2022-10-13T01:03:01.655Z,62.26
2022-10-13T01:05:29.914Z,62.42
2022-10-13T01:07:58.510Z,62.25
2022-10-13T01:10:36.495Z,62.52
2022-10-13T01:13:17.379Z,62.46
2022-10-13T01:15:59.964Z,62.41
2022-10-13T01:18:51.603Z,62.57
2022-10-13T01:21:21.402Z,62.61
2022-10-13T01:24:25.940Z,62.48
2022-10-13T01:27:20.377Z,62.67
2022-10-13T01:30:07.737Z,62.59
2022-10-13T01:32:53.425Z,62.79
2022-10-13T01:35:43.447Z,62.57
2022-10-13T01:38:37.035Z,62.60
2022-10-13T01:41:37.538Z,62.53
2022-10-13T01:44:26.303Z,62.52
2022-10-13T01:46:54.858Z,62.58
2022-10-13T01:49:27.799Z,62.73
2022-10-13T01:51:57.159Z,62.75
2022-10-13T01:54:23.956Z,62.82
2022-10-13T01:56:55.125Z,62.76
2022-10-13T01:59:22.872Z,62.93
2022-10-13T02:02:08.357Z,62.84
2022-10-13T02:05:08.233Z,62.90
2022-10-13T02:07:46.346Z,63.09
2022-10-13T02:10:44.671Z,63.02
2022-10-13T02:13:14.857Z,62.89
2022-10-13T02:15:46.515Z,62.79
2022-10-13T02:18:17.352Z,62.85
2022-10-13T02:20:46.233Z,63.19
2022-10-13T02:23:19.062Z,62.93
2022-10-13T02:25:47.902Z,63.06
2022-10-13T02:28:15.932Z,63.19
2022-10-13T02:30:45.025Z,62.98
2022-10-13T02:33:13.492Z,63.29
2022-10-13T02:35:41.059Z,63.20
2022-10-13T02:38:08.030Z,63.29
2022-10-13T02:40:34.948Z,63.21
2022-10-13T02:43:01.751Z,63.27
2022-10-13T02:45:28.658Z,63.41
2022-10-13T02:47:55.876Z,63.17
2022-10-13T02:50:22.669Z,63.01
2022-10-13T02:52:49.513Z,63.19
2022-10-13T02:55:16.376Z,63.20
2022-10-13T02:57:43.250Z,63.12
2022-10-13T03:00:10.629Z,63.17
2022-10-13T03:02:37.523Z,63.12
2022-10-13T03:05:04.821Z,63.34
2022-10-13T03:07:31.751Z,63.24
2022-10-13T03:09:58.578Z,63.42
2022-10-13T03:12:25.410Z,63.29
2022-10-13T03:14:52.241Z,63.48
2022-10-13T03:17:19.087Z,63.31
2022-10-13T03:19:46.000Z,63.46
2022-10-13T03:22:15.627Z,63.17
2022-10-13T03:24:43.161Z,63.28
2022-10-13T03:27:10.044Z,63.10
2022-10-13T03:29:36.930Z,63.03
2022-10-13T03:32:03.993Z,63.11
2022-10-13T03:34:30.823Z,62.96
2022-10-13T03:36:58.072Z,63.19
2022-10-13T03:39:25.143Z,62.97
2022-10-13T03:41:52.063Z,62.72
2022-10-13T03:44:18.841Z,63.05
2022-10-13T03:46:45.723Z,63.04
2022-10-13T03:49:12.730Z,62.77
2022-10-13T03:51:39.787Z,62.98
2022-10-13T03:54:06.628Z,63.00
2022-10-13T03:56:33.467Z,62.94
2022-10-13T03:59:01.137Z,62.81
2022-10-13T04:01:30.526Z,62.79
2022-10-13T04:03:58.606Z,62.92
2022-10-13T04:06:26.825Z,62.98
2022-10-13T04:08:54.254Z,62.90
2022-10-13T04:11:21.853Z,63.14
2022-10-13T04:13:48.735Z,63.02
2022-10-13T04:16:21.898Z,62.87
2022-10-13T04:18:54.692Z,62.96
2022-10-13T04:21:22.892Z,63.06
2022-10-13T04:23:50.393Z,62.77
2022-10-13T04:26:20.641Z,62.84
2022-10-13T04:28:49.280Z,63.01
2022-10-13T04:31:16.803Z,62.73
2022-10-13T04:33:44.599Z,63.05
2022-10-13T04:36:13.414Z,63.06
2022-10-13T04:38:41.069Z,63.06
2022-10-13T04:41:09.293Z,62.98
2022-10-13T04:43:36.740Z,62.95
2022-10-13T04:46:09.033Z,63.00
2022-10-13T04:48:35.920Z,63.07
2022-10-13T04:51:09.228Z,63.02
2022-10-13T04:53:37.083Z,63.07
2022-10-13T04:56:06.389Z,63.21
2022-10-13T04:58:33.189Z,62.76
2022-10-13T05:01:00.117Z,62.93
2022-10-13T05:03:27.507Z,63.04
2022-10-13T05:05:54.809Z,62.74
2022-10-13T05:08:21.930Z,63.06
2022-10-13T05:11:00.576Z,62.87
2022-10-13T05:13:28.928Z,62.95
2022-10-13T05:15:56.623Z,62.75
2022-10-13T05:18:24.719Z,63.56
2022-10-13T05:20:51.606Z,63.36
2022-10-13T05:23:18.562Z,63.49
2022-10-13T05:25:45.380Z,63.99
2022-10-13T05:28:12.252Z,63.90
2022-10-13T05:30:39.557Z,63.87
2022-10-13T05:33:06.364Z,63.77
2022-10-13T05:35:33.206Z,63.75
2022-10-13T05:37:59.991Z,64.00
2022-10-13T05:40:26.879Z,63.74
2022-10-13T05:42:53.867Z,63.89
2022-10-13T05:45:22.104Z,63.79
2022-10-13T05:47:49.003Z,62.46
2022-10-13T05:50:15.981Z,62.77
2022-10-13T05:52:43.623Z,63.02
2022-10-13T05:55:13.589Z,63.39
2022-10-13T05:57:48.723Z,63.02
2022-10-13T06:00:18.136Z,62.70
2022-10-13T06:03:03.613Z,62.86
2022-10-13T06:05:33.061Z,62.89
2022-10-13T06:08:00.604Z,63.02
2022-10-13T06:10:27.766Z,62.94
2022-10-13T06:12:54.605Z,62.94
2022-10-13T06:15:25.647Z,62.91
2022-10-13T06:17:54.849Z,63.40
2022-10-13T06:20:21.875Z,63.35
2022-10-13T06:22:50.557Z,62.65
2022-10-13T06:25:17.654Z,59.68
2022-10-13T06:27:44.598Z,58.57
2022-10-13T06:30:11.980Z,57.83
2022-10-13T06:32:38.869Z,57.27
2022-10-13T06:35:06.556Z,56.81
2022-10-13T06:37:33.391Z,55.56
2022-10-13T06:40:00.212Z,57.60
2022-10-13T06:42:27.069Z,59.05
2022-10-13T06:44:53.939Z,60.46
2022-10-13T06:47:20.807Z,60.87
2022-10-13T06:49:47.752Z,60.99
2022-10-13T06:52:14.610Z,61.47
2022-10-13T06:54:41.476Z,61.59
2022-10-13T06:57:08.447Z,62.06
2022-10-13T06:59:35.249Z,62.09
2022-10-13T07:02:02.280Z,62.29
2022-10-13T07:04:29.291Z,62.33
2022-10-13T07:06:56.330Z,62.99
2022-10-13T07:09:23.206Z,62.78
2022-10-13T07:11:50.581Z,62.76
2022-10-13T07:14:17.434Z,62.77
2022-10-13T07:16:44.432Z,62.87
2022-10-13T07:19:11.469Z,62.95
2022-10-13T07:21:38.447Z,63.17
2022-10-13T07:24:05.747Z,63.17
2022-10-13T07:26:34.159Z,63.30
2022-10-13T07:29:01.205Z,63.26
2022-10-13T07:31:28.367Z,63.00
2022-10-13T07:33:57.301Z,63.11
2022-10-13T07:36:24.333Z,63.09
2022-10-13T07:38:51.317Z,63.25
2022-10-13T07:41:18.356Z,62.98
2022-10-13T07:43:45.568Z,63.19
2022-10-13T07:46:14.088Z,63.35
2022-10-13T07:48:41.372Z,63.29
2022-10-13T07:51:11.557Z,63.28
2022-10-13T07:53:39.346Z,63.23
2022-10-13T07:56:09.120Z,63.41
2022-10-13T07:58:41.011Z,63.41
2022-10-13T08:01:08.623Z,63.36
2022-10-13T08:06:23.748Z,63.67
2022-10-13T08:08:50.812Z,63.62
2022-10-13T08:11:18.203Z,63.63
2022-10-13T08:13:53.107Z,63.77
2022-10-13T08:16:20.363Z,63.63
2022-10-13T08:18:48.540Z,63.71
2022-10-13T08:24:09.399Z,63.38
2022-10-13T08:26:36.251Z,63.38
2022-10-13T08:29:20.130Z,63.67
2022-10-13T08:34:16.600Z,63.56
2022-10-13T08:36:44.173Z,63.44
2022-10-13T08:39:11.252Z,63.56
2022-10-13T08:41:40.931Z,63.72
2022-10-13T08:47:24.076Z,63.64
2022-10-13T08:49:53.508Z,63.46
2022-10-13T08:52:30.335Z,63.22
2022-10-13T08:54:58.659Z,63.35
2022-10-13T08:57:25.719Z,63.18
2022-10-13T08:59:53.501Z,62.95
2022-10-13T09:02:30.087Z,63.09
2022-10-13T09:04:59.207Z,63.29
2022-10-13T09:07:29.923Z,63.72
2022-10-13T09:09:57.116Z,63.39
2022-10-13T09:12:25.527Z,63.52
2022-10-13T09:15:10.414Z,63.44
2022-10-13T09:17:39.947Z,63.50
2022-10-13T09:20:27.905Z,63.45
2022-10-13T09:23:14.638Z,63.46
2022-10-13T09:25:52.300Z,63.31
2022-10-13T09:28:33.536Z,62.91
2022-10-13T09:31:10.284Z,63.01
2022-10-13T09:33:40.318Z,62.99
2022-10-13T09:36:13.724Z,62.69
2022-10-13T09:38:43.265Z,62.84
2022-10-13T09:41:10.112Z,63.13
2022-10-13T09:43:38.484Z,63.61
2022-10-13T09:46:32.203Z,63.80
2022-10-13T09:49:38.041Z,63.84
2022-10-13T09:52:14.130Z,63.89
2022-10-13T09:54:41.268Z,64.15
2022-10-13T09:57:17.940Z,64.31
2022-10-13T10:00:04.675Z,64.26
2022-10-13T10:02:41.277Z,64.50
2022-10-13T10:05:16.198Z,64.61
2022-10-13T10:07:43.378Z,64.13
2022-10-13T10:10:27.205Z,64.23
2022-10-13T10:12:54.838Z,64.37
2022-10-13T10:15:28.760Z,64.33
2022-10-13T10:18:08.228Z,64.42
2022-10-13T10:20:47.599Z,63.90
2022-10-13T10:23:38.184Z,63.17
2022-10-13T10:26:32.717Z,61.26
2022-10-13T10:29:05.872Z,61.22
2022-10-13T10:31:53.818Z,61.22
2022-10-13T10:34:45.632Z,61.58
2022-10-13T10:37:55.082Z,62.60
2022-10-13T10:40:35.393Z,62.89
2022-10-13T10:43:11.327Z,63.53
2022-10-13T10:45:40.013Z,64.00
2022-10-13T10:48:23.954Z,64.07
2022-10-13T10:50:54.343Z,63.95
2022-10-13T10:53:24.071Z,63.92
2022-10-13T10:56:03.286Z,64.50
2022-10-13T10:58:33.347Z,64.90
2022-10-13T11:01:14.431Z,65.11
2022-10-13T11:03:55.122Z,65.27
2022-10-13T11:06:24.752Z,65.31
2022-10-13T11:08:55.786Z,65.58
2022-10-13T11:11:26.603Z,65.42
2022-10-13T11:14:07.863Z,65.41
2022-10-13T11:16:42.045Z,65.55
2022-10-13T11:19:09.087Z,65.69
2022-10-13T11:21:54.442Z,65.71
2022-10-13T11:24:39.688Z,65.87
2022-10-13T11:27:12.134Z,65.74
2022-10-13T11:29:49.284Z,65.51
2022-10-13T11:32:25.509Z,65.88
2022-10-13T11:35:10.737Z,65.97
2022-10-13T11:38:07.838Z,65.99
2022-10-13T11:41:05.610Z,65.83
2022-10-13T11:44:07.553Z,65.80
2022-10-13T11:46:37.111Z,65.55
2022-10-13T11:49:33.807Z,65.86
2022-10-13T11:52:19.733Z,65.42
2022-10-13T11:55:03.276Z,65.55
2022-10-13T11:57:33.137Z,65.45
2022-10-13T12:00:00.216Z,65.72
2022-10-13T12:02:28.079Z,65.49
2022-10-13T12:05:04.265Z,65.63
2022-10-13T12:07:37.603Z,65.57
2022-10-13T12:10:08.263Z,65.60
2022-10-13T12:12:35.400Z,65.73
2022-10-13T12:15:05.985Z,65.55
2022-10-13T12:17:39.216Z,64.32
2022-10-13T12:20:25.170Z,63.55
2022-10-13T12:22:54.069Z,62.23
2022-10-13T12:25:28.432Z,61.25
2022-10-13T12:27:59.262Z,61.59
2022-10-13T12:30:37.960Z,61.74
2022-10-13T12:33:28.158Z,61.38
2022-10-13T12:35:55.452Z,62.62
2022-10-13T12:38:23.700Z,62.50
2022-10-13T12:40:53.775Z,62.57
2022-10-13T12:43:25.782Z,61.83
2022-10-13T12:45:53.197Z,61.06
2022-10-13T12:48:35.064Z,59.72
2022-10-13T12:51:25.034Z,58.92
2022-10-13T12:53:52.051Z,58.08
2022-10-13T12:56:32.200Z,58.09
2022-10-13T12:58:59.983Z,57.93
2022-10-13T13:01:35.437Z,57.47
2022-10-13T13:04:18.488Z,56.82
2022-10-13T13:06:57.673Z,56.51
2022-10-13T13:09:26.067Z,56.65
2022-10-13T13:12:07.643Z,56.72
2022-10-13T13:14:50.141Z,57.51
2022-10-13T13:17:27.615Z,57.14
2022-10-13T13:20:00.220Z,57.21
2022-10-13T13:22:27.533Z,57.36
2022-10-13T13:24:54.799Z,57.35
2022-10-13T13:27:27.917Z,57.46
2022-10-13T13:29:56.212Z,55.84
2022-10-13T13:32:25.755Z,55.49
2022-10-13T13:34:52.908Z,54.30
2022-10-13T13:37:31.351Z,54.55
2022-10-13T13:39:59.100Z,54.31
2022-10-13T13:42:28.702Z,54.87
2022-10-13T13:44:56.553Z,54.73
2022-10-13T13:47:28.800Z,54.48
2022-10-13T13:49:57.337Z,54.96
2022-10-13T13:52:25.821Z,55.25
2022-10-13T13:54:53.209Z,55.37
2022-10-13T13:57:21.342Z,55.46
2022-10-13T13:59:48.486Z,55.50
2022-10-13T14:02:19.731Z,54.71
2022-10-13T14:04:47.186Z,55.23
2022-10-13T14:07:14.779Z,54.49
2022-10-13T14:09:43.140Z,54.62
2022-10-13T14:12:11.248Z,54.23
2022-10-13T14:14:38.503Z,54.08
2022-10-13T14:17:05.919Z,55.82
2022-10-13T14:19:33.450Z,57.21
2022-10-13T14:22:04.750Z,58.23
2022-10-13T14:24:35.615Z,58.43
2022-10-13T14:27:02.566Z,59.24
2022-10-13T14:29:30.153Z,59.48
2022-10-13T14:31:57.401Z,59.61
2022-10-13T14:34:24.485Z,59.90
2022-10-13T14:36:51.628Z,59.83
2022-10-13T14:39:18.865Z,60.14
2022-10-13T14:41:45.892Z,60.31
2022-10-13T14:44:14.376Z,60.45
2022-10-13T14:46:42.077Z,60.34
2022-10-13T14:49:11.243Z,60.74
2022-10-13T14:51:38.292Z,60.67
2022-10-13T14:54:07.277Z,60.79
2022-10-13T14:56:34.786Z,60.92
2022-10-13T14:59:04.603Z,60.94
2022-10-13T15:01:33.676Z,61.11
2022-10-13T15:04:02.203Z,61.07
2022-10-13T15:06:29.682Z,61.08
2022-10-13T15:08:57.566Z,61.15
2022-10-13T15:11:25.610Z,60.98
2022-10-13T15:13:52.994Z,61.03
2022-10-13T15:16:32.933Z,61.13
2022-10-13T15:19:00.160Z,60.97
2022-10-13T15:21:27.257Z,60.86
2022-10-13T15:23:54.195Z,60.79
2022-10-13T15:26:21.598Z,60.61
2022-10-13T15:28:51.830Z,60.92
2022-10-13T15:31:20.540Z,60.67
2022-10-13T15:33:51.925Z,60.79
2022-10-13T15:36:20.554Z,60.65
2022-10-13T15:38:47.651Z,60.48
2022-10-13T15:41:15.168Z,60.60
2022-10-13T15:43:42.187Z,60.66
2022-10-13T15:46:13.156Z,60.69
2022-10-13T15:48:40.473Z,60.98
2022-10-13T15:51:15.959Z,60.53
2022-10-13T15:53:43.104Z,60.51
2022-10-13T15:56:10.109Z,60.72
2022-10-13T15:58:37.327Z,60.62
2022-10-13T16:01:12.342Z,60.73
2022-10-13T16:03:39.513Z,60.52
2022-10-13T16:06:08.325Z,60.62
2022-10-13T16:08:40.055Z,60.72
2022-10-13T16:11:12.949Z,60.55
2022-10-13T16:13:40.970Z,60.58
2022-10-13T16:16:08.480Z,60.55
2022-10-13T16:18:37.867Z,60.50
2022-10-13T16:21:31.429Z,60.14
2022-10-13T16:23:59.657Z,60.05
2022-10-13T16:26:27.272Z,60.07
2022-10-13T16:28:56.027Z,59.89
2022-10-13T16:31:23.122Z,60.09
2022-10-13T16:33:50.019Z,60.12
2022-10-13T16:36:19.114Z,59.16
2022-10-13T16:38:47.205Z,59.50
2022-10-13T16:41:17.312Z,59.98
2022-10-13T16:43:45.399Z,59.51
2022-10-13T16:46:14.461Z,59.83
2022-10-13T16:48:42.900Z,60.04
2022-10-13T16:51:13.447Z,60.25
2022-10-13T16:53:40.511Z,60.20
2022-10-13T16:56:08.524Z,60.27
2022-10-13T16:58:35.596Z,60.22
2022-10-13T17:01:11.630Z,60.08
2022-10-13T17:03:39.795Z,59.70
2022-10-13T17:06:07.275Z,59.59
2022-10-13T17:08:34.554Z,59.98
2022-10-13T17:11:01.495Z,59.80
2022-10-13T17:13:28.624Z,59.88
2022-10-13T17:15:57.282Z,60.00
2022-10-13T17:18:26.563Z,59.87
2022-10-13T17:20:55.325Z,59.72
2022-10-13T17:23:23.489Z,59.82
2022-10-13T17:25:51.951Z,58.84
2022-10-13T17:28:19.706Z,59.10
2022-10-13T17:31:00.674Z,59.41
2022-10-13T17:33:29.300Z,59.07
2022-10-13T17:36:05.288Z,59.26
2022-10-13T17:38:32.712Z,59.00
2022-10-13T17:41:01.741Z,59.01
2022-10-13T17:43:29.582Z,58.89
2022-10-13T17:46:12.122Z,58.74
2022-10-13T17:48:44.614Z,58.68
2022-10-13T17:51:14.973Z,58.68
2022-10-13T17:53:43.756Z,58.59
2022-10-13T17:56:16.697Z,58.06
2022-10-13T17:58:45.068Z,57.91
2022-10-13T18:01:15.023Z,58.03
2022-10-13T18:03:50.538Z,58.06
2022-10-13T18:06:18.337Z,57.95
2022-10-13T18:08:46.178Z,57.86
2022-10-13T18:11:16.590Z,57.39
2022-10-13T18:13:44.931Z,57.48
2022-10-13T18:16:15.420Z,57.44
2022-10-13T18:18:46.458Z,57.34
2022-10-13T18:21:15.942Z,57.91
2022-10-13T18:23:43.957Z,58.09
2022-10-13T18:26:13.393Z,57.73
2022-10-13T18:28:43.788Z,57.55
2022-10-13T18:31:18.592Z,57.56
2022-10-13T18:33:46.247Z,57.66
2022-10-13T18:36:20.068Z,57.56
2022-10-13T18:38:48.246Z,57.74
2022-10-13T18:41:16.746Z,57.83
2022-10-13T18:43:43.736Z,57.69
2022-10-13T18:46:10.785Z,57.32
2022-10-13T18:48:37.726Z,57.17
2022-10-13T18:51:06.998Z,57.40
2022-10-13T18:53:37.167Z,57.05
2022-10-13T18:56:13.714Z,57.00
2022-10-13T18:58:41.277Z,57.06
2022-10-13T19:01:11.499Z,56.94
2022-10-13T19:03:40.510Z,56.92
2022-10-13T19:06:10.686Z,56.76
2022-10-13T19:08:37.986Z,56.93
2022-10-13T19:11:16.722Z,56.80
2022-10-13T19:13:45.356Z,56.76
2022-10-13T19:16:14.229Z,56.78
2022-10-13T19:18:43.556Z,56.64
2022-10-13T19:21:12.649Z,56.78
2022-10-13T19:23:41.056Z,56.80
2022-10-13T19:26:14.962Z,56.67
2022-10-13T19:28:43.956Z,56.91
2022-10-13T19:31:14.417Z,57.09
2022-10-13T19:33:45.693Z,57.35
2022-10-13T19:36:26.884Z,57.58
2022-10-13T19:38:54.518Z,57.50
2022-10-13T19:41:22.967Z,57.64
2022-10-13T19:43:50.990Z,57.83
2022-10-13T19:46:18.841Z,57.65
2022-10-13T19:48:46.736Z,57.54
2022-10-13T19:51:19.614Z,57.53
2022-10-13T19:53:47.043Z,57.24
2022-10-13T19:56:24.292Z,57.62
2022-10-13T19:58:52.544Z,57.12
2022-10-13T20:01:21.969Z,57.20
2022-10-13T20:03:54.374Z,57.16
2022-10-13T20:06:25.212Z,57.19
2022-10-13T20:08:52.517Z,57.27
2022-10-13T20:11:24.039Z,57.31
2022-10-13T20:13:53.733Z,57.36
2022-10-13T20:16:24.093Z,57.37
2022-10-13T20:19:01.373Z,57.35
2022-10-13T20:21:29.332Z,57.53
2022-10-13T20:23:57.784Z,57.48
2022-10-13T20:26:29.727Z,57.64
2022-10-13T20:28:58.886Z,57.50
2022-10-13T20:31:28.032Z,57.58
2022-10-13T20:33:59.380Z,57.90
2022-10-13T20:36:29.281Z,57.90
2022-10-13T20:38:58.483Z,57.94
2022-10-13T20:41:29.838Z,57.76
2022-10-13T20:44:01.590Z,57.84
2022-10-13T20:46:30.994Z,57.95
2022-10-13T20:49:15.299Z,57.92
2022-10-13T20:51:43.419Z,58.17
2022-10-13T20:54:12.577Z,58.11
2022-10-13T20:56:40.426Z,58.26
2022-10-13T20:59:10.557Z,58.28
2022-10-13T21:01:38.549Z,58.52
2022-10-13T21:04:06.145Z,58.56
2022-10-13T21:06:34.231Z,58.66
2022-10-13T21:09:02.068Z,58.64
2022-10-13T21:11:29.120Z,58.72
2022-10-13T21:13:57.802Z,58.80
2022-10-13T21:16:30.122Z,58.95
2022-10-13T21:18:58.455Z,59.00
2022-10-13T21:21:33.551Z,59.13
2022-10-13T21:24:04.098Z,59.21
2022-10-13T21:26:32.556Z,59.15
2022-10-13T21:29:00.060Z,59.28
2022-10-13T21:31:28.420Z,59.38
2022-10-13T21:33:56.833Z,59.37
2022-10-13T21:36:29.601Z,59.40
2022-10-13T21:38:59.495Z,59.46
2022-10-13T21:41:28.103Z,59.69
2022-10-13T21:43:55.771Z,59.66
2022-10-13T21:46:25.536Z,59.66
2022-10-13T21:48:57.118Z,59.67
2022-10-13T21:51:29.846Z,60.01
2022-10-13T21:53:59.804Z,59.99
2022-10-13T21:56:27.723Z,59.89
2022-10-13T21:58:55.535Z,60.18
2022-10-13T22:01:23.154Z,60.21
2022-10-13T22:03:54.016Z,60.23
2022-10-13T22:06:21.344Z,60.27
2022-10-13T22:08:50.934Z,60.29
2022-10-13T22:11:19.150Z,60.43
2022-10-13T22:13:46.901Z,60.46
2022-10-13T22:16:17.541Z,60.50
2022-10-13T22:18:44.926Z,60.63
2022-10-13T22:21:15.417Z,60.57
2022-10-13T22:23:43.016Z,60.74
2022-10-13T22:26:10.358Z,60.60
2022-10-13T22:28:38.310Z,60.71
2022-10-13T22:31:07.042Z,60.72
2022-10-13T22:33:35.736Z,60.89
2022-10-13T22:36:12.030Z,60.81
2022-10-13T22:38:39.014Z,60.87
2022-10-13T22:41:06.965Z,60.96
2022-10-13T22:43:34.429Z,61.04
2022-10-13T22:46:02.312Z,61.13
2022-10-13T22:48:29.603Z,60.97
2022-10-13T22:50:56.848Z,61.44
2022-10-13T22:53:23.928Z,61.22
2022-10-13T22:55:51.018Z,61.31
2022-10-13T22:58:18.011Z,61.26
2022-10-13T23:00:44.871Z,61.19
2022-10-13T23:03:14.592Z,60.97
2022-10-13T23:05:42.839Z,61.13
2022-10-13T23:08:11.400Z,61.21
2022-10-13T23:10:38.389Z,61.31
2022-10-13T23:13:05.872Z,61.26
2022-10-13T23:15:32.932Z,61.37
2022-10-13T23:17:59.814Z,61.34
2022-10-13T23:20:26.697Z,61.59
2022-10-13T23:22:53.570Z,61.61
2022-10-13T23:25:20.426Z,61.59
2022-10-13T23:27:47.238Z,61.50
2022-10-13T23:30:14.153Z,61.69
2022-10-13T23:32:41.031Z,61.74
2022-10-13T23:35:08.153Z,61.71
2022-10-13T23:37:34.988Z,61.84
2022-10-13T23:40:02.008Z,61.84
2022-10-13T23:42:28.914Z,61.72
2022-10-13T23:44:55.760Z,62.06
2022-10-13T23:47:23.094Z,61.98
2022-10-13T23:49:50.283Z,62.15
2022-10-13T23:52:19.538Z,62.19
2022-10-13T23:54:46.412Z,61.77
2022-10-13T23:57:13.324Z,61.99
2022-10-13T23:59:40.225Z,62.23
